Time;durP1;ratioP1;P1;durP2;ratioP2;P2;SDS_P1;SDS_P2;PMS_P1;PMS_P2;Temp;Humidity;BMP_temperature;BMP_pressure;BME280_temperature;BME280_humidity;BME280_pressure;Samples;Min_cycle;Max_cycle;Signal;HPM_P1;HPM_P2
2023/03/01 00:00:19;;;;;;;;;;;;;;;;;;1036820;28;4084;-52
2023/03/01 00:01:11;;;;;;;;;;;;;;;;;;1034639;28;4101;-51
2023/03/01 00:01:41;;;;;;;;;;;;;;;;;;1033923;28;1963;-53
2023/03/01 00:02:11;;;;;;;;;;;;;;;;;;1038249;28;3931;-52
2023/03/01 00:02:41;;;;;;;;;;;;;;;;;;1035741;28;3172;-52
2023/03/01 00:03:12;;;;;;;;;;;;;;;;;;1038568;28;3837;-53
2023/03/01 00:03:42;;;;;;;;;;;;;;;;;;1037119;28;1746;-52
2023/03/01 00:04:13;;;;;;;;;;;;;;;;;;1036181;28;3819;-54
2023/03/01 00:04:43;;;;;;;;;;;;;;;;;;1035390;28;4015;-54
2023/03/01 00:05:13;;;;;;;;;;;;;;;;;;1038873;28;4092;-52
2023/03/01 00:05:45;;;;;;;;;;;;;;;;;;1037479;28;3017;-53
2023/03/01 00:06:15;;;;;;;;;;;;;;;;;;1035879;28;4151;-52
2023/03/01 00:06:46;;;;;;;;;;;;;;;;;;1037910;28;2674;-54
2023/03/01 00:07:16;;;;;;;;;;;;;;;;;;1039882;28;3910;-53
2023/03/01 00:07:46;;;;;;;;;;;;;;;;;;1039334;28;2929;-54
2023/03/01 00:08:17;;;;;;;;;;;;;;;;;;1040569;28;4043;-52
2023/03/01 00:08:47;;;;;;;;;;;;;;;;;;1038661;28;2001;-53
2023/03/01 00:09:17;;;;;;;;;;;;;;;;;;1035128;28;4021;-55
2023/03/01 00:09:47;;;;;;;;;;;;;;;;;;1038167;28;2022;-51
2023/03/01 00:10:18;;;;;;;;;;;;;;;;;;1036082;28;3945;-51
2023/03/01 00:10:48;;;;;;;;;;;;;;;;;;1037508;28;1701;-53
2023/03/01 00:11:20;;;;;;;;;;;;;;;;;;1036667;28;3980;-55
2023/03/01 00:11:50;;;;;;;;;;;;;;;;;;1038002;28;1654;-53
2023/03/01 00:12:21;;;;;;;;;;;;;;;;;;1039219;28;3753;-52
2023/03/01 00:12:52;;;;;;;;;;;;;;;;;;1040512;28;2420;-52
2023/03/01 00:13:22;;;;;;;;;;;;;;;;;;1042956;28;4032;-52
2023/03/01 00:13:54;;;;;;;;;;;;;;;;;;1041267;28;1775;-54
2023/03/01 00:14:24;;;;;;;;;;;;;;;;;;1042007;28;3813;-52
2023/03/01 00:14:55;;;;;;;;;;;;;;;;;;1043801;28;2689;-52
2023/03/01 00:15:25;;;;;;;;;;;;;;;;;;1042643;28;4008;-53
2023/03/01 00:15:55;;;;;;;;;;;;;;;;;;1042537;28;2436;-54
2023/03/01 00:16:26;;;;;;;;;;;;;;;;;;1042905;28;3753;-53
2023/03/01 00:16:57;;;;;;;;;;;;;;;;;;1042318;28;1590;-50
2023/03/01 00:17:27;;;;;;;;;;;;;;;;;;1042976;28;3866;-53
2023/03/01 00:17:57;;;;;;;;;;;;;;;;;;1041255;28;3194;-52
2023/03/01 00:18:28;;;;;;;;;;;;;;;;;;1041346;28;3942;-53
2023/03/01 00:18:58;;;;;;;;;;;;;;;;;;1041455;28;2854;-51
2023/03/01 00:19:28;;;;;;;;;;;;;;;;;;1041029;28;3966;-53
2023/03/01 00:19:59;;;;;;;;;;;;;;;;;;1043362;28;3883;-51
2023/03/01 00:20:29;;;;;;;;;;;;;;;;;;1042661;28;1858;-54
2023/03/01 00:20:59;;;;;;;;;;;;;;;;;;1043331;28;4216;-54
2023/03/01 00:21:29;;;;;;;;;;;;;;;;;;1043051;28;1839;-52
2023/03/01 00:22:00;;;;;;;;;;;;;;;;;;1042725;28;3825;-53
2023/03/01 00:22:30;;;;;;;;;;;;;;;;;;1042091;28;1845;-52
2023/03/01 00:23:00;;;;;;;;;;;;;;;;;;1041897;28;3941;-54
2023/03/01 00:23:31;;;;;;;;;;;;;;;;;;1043206;28;1774;-53
2023/03/01 00:24:01;;;;;;;;;;;;;;;;;;1041252;28;4746;-51
2023/03/01 00:24:32;;;;;;;;;;;;;;;;;;1042798;28;1852;-55
2023/03/01 00:25:02;;;;;;;;;;;;;;;;;;1041907;28;3884;-51
2023/03/01 00:25:33;;;;;;;;;;;;;;;;;;1043640;28;1678;-54
2023/03/01 00:26:07;;;;;;;;;;;;;;;;;;1042594;28;4032;-52
2023/03/01 00:26:37;;;;;;;;;;;;;;;;;;1042298;28;1741;-52
2023/03/01 00:27:08;;;;;;;;;;;;;;;;;;1043061;28;4161;-54
2023/03/01 00:27:38;;;;;;;;;;;;;;;;;;1042482;28;2816;-55
2023/03/01 00:28:08;;;;;;;;;;;;;;;;;;1047658;28;4077;-53
2023/03/01 00:28:38;;;;;;;;;;;;;;;;;;1051125;28;3097;-51
2023/03/01 00:29:09;;;;;;;;;;;;;;;;;;1051344;28;4022;-53
2023/03/01 00:29:39;;;;;;;;;;;;;;;;;;1050167;28;1928;-55
2023/03/01 00:30:10;;;;;;;;;;;;;;;;;;1041731;28;4047;-53
2023/03/01 00:30:40;;;;;;;;;;;;;;;;;;1042995;28;2895;-52
2023/03/01 00:31:12;;;;;;;;;;;;;;;;;;1041220;28;4132;-52
2023/03/01 00:31:42;;;;;;;;;;;;;;;;;;1043533;28;3031;-51
2023/03/01 00:32:12;;;;;;;;;;;;;;;;;;1040954;28;4068;-52
2023/03/01 00:32:42;;;;;;;;;;;;;;;;;;1042684;28;2007;-53
2023/03/01 00:33:13;;;;;;;;;;;;;;;;;;1040937;28;3981;-52
2023/03/01 00:33:44;;;;;;;;;;;;;;;;;;1042256;28;2938;-53
2023/03/01 00:34:14;;;;;;;;;;;;;;;;;;1042219;28;3947;-55
2023/03/01 00:34:54;;;;;;;;;;;;;;;;;;1043111;28;1813;-53
2023/03/01 00:35:24;;;;;;;;;;;;;;;;;;1040906;28;3897;-51
2023/03/01 00:35:54;;;;;;;;;;;;;;;;;;1040990;28;2851;-51
2023/03/01 00:36:25;;;;;;;;;;;;;;;;;;1042546;28;4076;-50
2023/03/01 00:37:05;;;;;;;;;;;;;;;;;;1041602;28;3010;-54
2023/03/01 00:37:35;;;;;;;;;;;;;;;;;;1041550;28;3939;-54
2023/03/01 00:38:05;;;;;;;;;;;;;;;;;;1039917;28;3898;-54
2023/03/01 00:38:40;;;;;;;;;;;;;;;;;;1042136;28;2807;-54
2023/03/01 00:39:11;;;;;;;;;;;;;;;;;;1042403;28;3964;-53
2023/03/01 00:39:42;;;;;;;;;;;;;;;;;;1043771;28;1769;-50
2023/03/01 00:40:12;;;;;;;;;;;;;;;;;;1040524;28;3772;-50
2023/03/01 00:40:43;;;;;;;;;;;;;;;;;;1042994;28;2258;-51
2023/03/01 00:41:15;;;;;;;;;;;;;;;;;;1040629;28;4017;-51
2023/03/01 00:41:45;;;;;;;;;;;;;;;;;;1043449;28;2797;-54
2023/03/01 00:42:16;;;;;;;;;;;;;;;;;;1041043;28;3810;-52
2023/03/01 00:42:46;;;;;;;;;;;;;;;;;;1044043;28;1622;-54
2023/03/01 00:43:16;;;;;;;;;;;;;;;;;;1039739;28;3789;-55
2023/03/01 00:43:46;;;;;;;;;;;;;;;;;;1041650;28;2704;-53
2023/03/01 00:44:17;;;;;;;;;;;;;;;;;;1040915;28;4029;-52
2023/03/01 00:44:47;;;;;;;;;;;;;;;;;;1041857;28;2234;-51
2023/03/01 00:45:17;;;;;;;;;;;;;;;;;;1040132;28;3896;-53
2023/03/01 00:45:47;;;;;;;;;;;;;;;;;;1039272;28;1796;-52
2023/03/01 00:46:22;;;;;;;;;;;;;;;;;;1038627;28;4086;-52
2023/03/01 00:46:52;;;;;;;;;;;;;;;;;;1041837;28;2412;-50
2023/03/01 00:47:23;;;;;;;;;;;;;;;;;;1040420;28;4030;-51
2023/03/01 00:47:53;;;;;;;;;;;;;;;;;;1039310;28;2672;-53
2023/03/01 00:48:24;;;;;;;;;;;;;;;;;;1042645;28;4155;-52
2023/03/01 00:48:54;;;;;;;;;;;;;;;;;;1041171;28;2145;-53
2023/03/01 00:49:27;;;;;;;;;;;;;;;;;;1042160;28;4039;-53
2023/03/01 00:49:57;;;;;;;;;;;;;;;;;;1042897;28;1987;-51
2023/03/01 00:50:27;;;;;;;;;;;;;;;;;;1042615;28;3752;-53
2023/03/01 00:51:04;;;;;;;;;;;;;;;;;;1042499;28;2622;-53
2023/03/01 00:51:34;;;;;;;;;;;;;;;;;;1039814;28;3951;-51
2023/03/01 00:52:04;;;;;;;;;;;;;;;;;;1039645;28;4073;-51
2023/03/01 00:52:35;;;;;;;;;;;;;;;;;;1039222;28;1863;-52
2023/03/01 00:53:05;;;;;;;;;;;;;;;;;;1036513;28;4095;-51
2023/03/01 00:53:35;;;;;;;;;;;;;;;;;;1037319;28;3001;-52
2023/03/01 00:54:06;;;;;;;;;;;;;;;;;;1038324;28;4029;-56
2023/03/01 00:54:36;;;;;;;;;;;;;;;;;;1037276;28;2819;-54
2023/03/01 00:55:07;;;;;;;;;;;;;;;;;;1038109;28;4253;-51
2023/03/01 00:55:37;;;;;;;;;;;;;;;;;;1041501;28;1780;-54
2023/03/01 00:56:08;;;;;;;;;;;;;;;;;;1039712;28;4054;-52
2023/03/01 00:56:39;;;;;;;;;;;;;;;;;;1042417;28;2751;-54
2023/03/01 00:57:09;;;;;;;;;;;;;;;;;;1042537;28;4195;-52
2023/03/01 00:57:39;;;;;;;;;;;;;;;;;;1040138;28;2715;-52
2023/03/01 00:58:09;;;;;;;;;;;;;;;;;;1042652;28;4097;-55
2023/03/01 00:58:40;;;;;;;;;;;;;;;;;;1044728;28;2905;-52
2023/03/01 00:59:10;;;;;;;;;;;;;;;;;;1042987;28;4076;-52
2023/03/01 00:59:41;;;;;;;;;;;;;;;;;;1041809;28;2071;-52
2023/03/01 01:00:11;;;;;;;;;;;;;;;;;;1044572;28;4031;-51
2023/03/01 01:00:41;;;;;;;;;;;;;;;;;;1041851;28;3174;-52
2023/03/01 01:01:19;;;;;;;;;;;;;;;;;;1038787;28;3951;-49
2023/03/01 01:01:49;;;;;;;;;;;;;;;;;;1036669;28;2380;-51
2023/03/01 01:02:20;;;;;;;;;;;;;;;;;;1034876;28;4112;-53
2023/03/01 01:02:50;;;;;;;;;;;;;;;;;;1036370;28;1664;-52
2023/03/01 01:03:20;;;;;;;;;;;;;;;;;;1037802;28;4042;-55
2023/03/01 01:03:52;;;;;;;;;;;;;;;;;;1038659;28;1683;-52
2023/03/01 01:04:22;;;;;;;;;;;;;;;;;;1035276;28;3931;-53
2023/03/01 01:04:53;;;;;;;;;;;;;;;;;;1036825;28;2851;-53
2023/03/01 01:05:23;;;;;;;;;;;;;;;;;;1036237;28;3938;-53
2023/03/01 01:05:53;;;;;;;;;;;;;;;;;;1036810;28;3082;-54
2023/03/01 01:06:29;;;;;;;;;;;;;;;;;;1036000;28;4039;-53
2023/03/01 01:06:59;;;;;;;;;;;;;;;;;;1038378;28;4096;-54
2023/03/01 01:07:29;;;;;;;;;;;;;;;;;;1037633;28;2252;-55
2023/03/01 01:08:00;;;;;;;;;;;;;;;;;;1035283;28;3903;-51
2023/03/01 01:08:30;;;;;;;;;;;;;;;;;;1036392;28;2926;-55
2023/03/01 01:09:01;;;;;;;;;;;;;;;;;;1038060;28;3910;-52
2023/03/01 01:09:31;;;;;;;;;;;;;;;;;;1037335;28;2794;-53
2023/03/01 01:10:02;;;;;;;;;;;;;;;;;;1037427;28;4050;-54
2023/03/01 01:10:35;;;;;;;;;;;;;;;;;;1036891;28;2818;-51
2023/03/01 01:11:08;;;;;;;;;;;;;;;;;;1035364;28;3823;-54
2023/03/01 01:11:38;;;;;;;;;;;;;;;;;;1038369;28;2853;-51
2023/03/01 01:12:08;;;;;;;;;;;;;;;;;;1036716;28;4119;-53
2023/03/01 01:12:39;;;;;;;;;;;;;;;;;;1037110;28;1727;-53
2023/03/01 01:13:09;;;;;;;;;;;;;;;;;;1035016;28;3956;-51
2023/03/01 01:13:40;;;;;;;;;;;;;;;;;;1038191;28;2796;-55
2023/03/01 01:14:10;;;;;;;;;;;;;;;;;;1036367;28;3804;-51
2023/03/01 01:14:40;;;;;;;;;;;;;;;;;;1037419;28;3147;-51
2023/03/01 01:15:13;;;;;;;;;;;;;;;;;;1037370;28;4099;-53
2023/03/01 01:15:43;;;;;;;;;;;;;;;;;;1036894;28;2852;-54
2023/03/01 01:16:15;;;;;;;;;;;;;;;;;;1038089;28;4146;-53
2023/03/01 01:16:46;;;;;;;;;;;;;;;;;;1038756;28;1681;-53
2023/03/01 01:17:16;;;;;;;;;;;;;;;;;;1036256;28;4057;-51
2023/03/01 01:17:46;;;;;;;;;;;;;;;;;;1036403;28;3051;-52
2023/03/01 01:18:16;;;;;;;;;;;;;;;;;;1038773;28;3917;-53
2023/03/01 01:18:47;;;;;;;;;;;;;;;;;;1039125;28;1739;-53
2023/03/01 01:19:17;;;;;;;;;;;;;;;;;;1036439;28;3885;-54
2023/03/01 01:19:47;;;;;;;;;;;;;;;;;;1036296;28;2681;-52
2023/03/01 01:20:17;;;;;;;;;;;;;;;;;;1039338;28;3858;-55
2023/03/01 01:20:48;;;;;;;;;;;;;;;;;;1038982;28;2212;-51
2023/03/01 01:21:19;;;;;;;;;;;;;;;;;;1037156;28;3931;-54
2023/03/01 01:21:50;;;;;;;;;;;;;;;;;;1036733;28;3276;-53
2023/03/01 01:22:20;;;;;;;;;;;;;;;;;;1035030;28;4120;-52
2023/03/01 01:22:51;;;;;;;;;;;;;;;;;;1036035;28;2576;-53
2023/03/01 01:23:21;;;;;;;;;;;;;;;;;;1032268;28;3992;-52
2023/03/01 01:23:51;;;;;;;;;;;;;;;;;;1036456;28;2681;-56
2023/03/01 01:24:22;;;;;;;;;;;;;;;;;;1039546;28;4030;-53
2023/03/01 01:24:52;;;;;;;;;;;;;;;;;;1041440;28;2524;-50
2023/03/01 01:25:24;;;;;;;;;;;;;;;;;;1035968;28;4499;-53
2023/03/01 01:25:55;;;;;;;;;;;;;;;;;;1038401;28;2678;-53
2023/03/01 01:26:26;;;;;;;;;;;;;;;;;;1036122;28;4042;-54
2023/03/01 01:26:57;;;;;;;;;;;;;;;;;;1039374;28;1592;-54
2023/03/01 01:27:27;;;;;;;;;;;;;;;;;;1038158;28;3976;-51
2023/03/01 01:27:57;;;;;;;;;;;;;;;;;;1039030;28;2663;-54
2023/03/01 01:28:27;;;;;;;;;;;;;;;;;;1038581;28;3969;-52
2023/03/01 01:28:58;;;;;;;;;;;;;;;;;;1039455;28;1740;-51
2023/03/01 01:29:29;;;;;;;;;;;;;;;;;;1039111;28;3874;-53
2023/03/01 01:29:59;;;;;;;;;;;;;;;;;;1040723;28;3896;-52
2023/03/01 01:30:29;;;;;;;;;;;;;;;;;;1042253;28;2568;-52
2023/03/01 01:31:00;;;;;;;;;;;;;;;;;;1042500;28;3823;-51
2023/03/01 01:31:31;;;;;;;;;;;;;;;;;;1039228;28;2478;-52
2023/03/01 01:32:01;;;;;;;;;;;;;;;;;;1041269;28;4081;-53
2023/03/01 01:32:31;;;;;;;;;;;;;;;;;;1042017;28;1992;-51
2023/03/01 01:33:01;;;;;;;;;;;;;;;;;;1042906;28;3807;-53
2023/03/01 01:33:32;;;;;;;;;;;;;;;;;;1042700;28;1894;-52
2023/03/01 01:34:04;;;;;;;;;;;;;;;;;;1042676;28;4084;-54
2023/03/01 01:34:34;;;;;;;;;;;;;;;;;;1042187;28;1713;-53
2023/03/01 01:35:05;;;;;;;;;;;;;;;;;;1041297;28;4066;-54
2023/03/01 01:35:35;;;;;;;;;;;;;;;;;;1042193;28;2092;-52
2023/03/01 01:36:06;;;;;;;;;;;;;;;;;;1042389;28;4074;-54
2023/03/01 01:36:37;;;;;;;;;;;;;;;;;;1043871;28;1640;-53
2023/03/01 01:37:07;;;;;;;;;;;;;;;;;;1040182;28;4026;-53
2023/03/01 01:37:37;;;;;;;;;;;;;;;;;;1042238;28;1677;-53
2023/03/01 01:38:08;;;;;;;;;;;;;;;;;;1043585;28;3952;-53
2023/03/01 01:38:38;;;;;;;;;;;;;;;;;;1047049;28;2082;-52
2023/03/01 01:39:12;;;;;;;;;;;;;;;;;;1046742;28;4132;-52
2023/03/01 01:39:43;;;;;;;;;;;;;;;;;;1042694;28;2645;-53
2023/03/01 01:40:13;;;;;;;;;;;;;;;;;;1043967;28;4073;-51
2023/03/01 01:40:44;;;;;;;;;;;;;;;;;;1047393;28;2161;-51
2023/03/01 01:41:15;;;;;;;;;;;;;;;;;;1046208;28;3862;-52
2023/03/01 01:41:46;;;;;;;;;;;;;;;;;;1039961;28;2108;-53
2023/03/01 01:42:17;;;;;;;;;;;;;;;;;;1040850;28;4065;-54
2023/03/01 01:42:47;;;;;;;;;;;;;;;;;;1039251;28;2075;-52
2023/03/01 01:43:27;;;;;;;;;;;;;;;;;;1044899;28;4081;-53
2023/03/01 01:44:10;;;;;;;;;;;;;;;;;;1041560;28;1857;-52
2023/03/01 01:44:40;;;;;;;;;;;;;;;;;;1046466;28;4132;-52
2023/03/01 01:45:29;;;;;;;;;;;;;;;;;;1045207;28;3978;-53
2023/03/01 01:46:02;;;;;;;;;;;;;;;;;;1046589;28;4090;-51
2023/03/01 01:46:33;;;;;;;;;;;;;;;;;;1047849;28;1769;-53
2023/03/01 01:47:05;;;;;;;;;;;;;;;;;;1047380;28;4047;-51
2023/03/01 01:47:35;;;;;;;;;;;;;;;;;;1046103;28;2156;-55
2023/03/01 01:48:10;;;;;;;;;;;;;;;;;;1046031;28;4165;-50
2023/03/01 01:48:46;;;;;;;;;;;;;;;;;;1046773;28;1593;-51
2023/03/01 01:49:22;;;;;;;;;;;;;;;;;;1045523;28;4437;-52
2023/03/01 01:49:54;;;;;;;;;;;;;;;;;;1044375;28;3071;-53
2023/03/01 01:50:25;;;;;;;;;;;;;;;;;;1046410;28;3731;-53
2023/03/01 01:50:56;;;;;;;;;;;;;;;;;;1047702;28;1705;-52
2023/03/01 01:51:29;;;;;;;;;;;;;;;;;;1045370;28;3808;-53
2023/03/01 01:52:20;;;;;;;;;;;;;;;;;;1046227;28;3974;-53
2023/03/01 01:52:51;;;;;;;;;;;;;;;;;;1046696;28;1883;-53
2023/03/01 01:53:22;;;;;;;;;;;;;;;;;;1046497;28;4067;-54
2023/03/01 01:53:55;;;;;;;;;;;;;;;;;;1046635;28;1628;-53
2023/03/01 01:54:28;;;;;;;;;;;;;;;;;;1046605;28;3814;-52
2023/03/01 01:55:06;;;;;;;;;;;;;;;;;;1046398;28;4073;-52
2023/03/01 01:55:39;;;;;;;;;;;;;;;;;;1046562;28;2141;-52
2023/03/01 01:56:11;;;;;;;;;;;;;;;;;;1045435;28;3985;-53
2023/03/01 01:56:44;;;;;;;;;;;;;;;;;;1046503;28;2797;-53
2023/03/01 01:57:22;;;;;;;;;;;;;;;;;;1045900;28;3892;-51
2023/03/01 01:57:53;;;;;;;;;;;;;;;;;;1046953;28;1631;-52
2023/03/01 01:58:26;;;;;;;;;;;;;;;;;;1045272;28;4075;-51
2023/03/01 01:58:56;;;;;;;;;;;;;;;;;;1047431;28;1593;-54
2023/03/01 01:59:28;;;;;;;;;;;;;;;;;;1045803;28;3987;-52
2023/03/01 01:59:59;;;;;;;;;;;;;;;;;;1046868;28;2244;-51
2023/03/01 02:00:30;;;;;;;;;;;;;;;;;;1045981;28;3863;-51
2023/03/01 02:01:01;;;;;;;;;;;;;;;;;;1047210;28;4048;-51
2023/03/01 02:01:31;;;;;;;;;;;;;;;;;;1047412;28;2613;-55
2023/03/01 02:02:03;;;;;;;;;;;;;;;;;;1049847;28;4005;-54
2023/03/01 02:02:33;;;;;;;;;;;;;;;;;;1045457;28;2012;-52
2023/03/01 02:03:06;;;;;;;;;;;;;;;;;;1046806;28;3892;-51
2023/03/01 02:03:41;;;;;;;;;;;;;;;;;;1043980;28;1630;-51
2023/03/01 02:04:12;;;;;;;;;;;;;;;;;;1044795;28;4279;-51
2023/03/01 02:04:42;;;;;;;;;;;;;;;;;;1039506;28;2197;-55
2023/03/01 02:05:16;;;;;;;;;;;;;;;;;;1038488;28;4050;-55
2023/03/01 02:05:50;;;;;;;;;;;;;;;;;;1040099;28;1673;-51
2023/03/01 02:06:50;;;;;;;;;;;;;;;;;;1041395;28;4020;-51
2023/03/01 02:07:22;;;;;;;;;;;;;;;;;;1037447;28;3983;-51
2023/03/01 02:07:52;;;;;;;;;;;;;;;;;;1041874;28;1774;-53
2023/03/01 02:08:25;;;;;;;;;;;;;;;;;;1038731;28;3796;-53
2023/03/01 02:08:57;;;;;;;;;;;;;;;;;;1041161;28;3238;-54
2023/03/01 02:09:27;;;;;;;;;;;;;;;;;;1042404;28;3897;-54
2023/03/01 02:09:58;;;;;;;;;;;;;;;;;;1036618;28;2694;-51
2023/03/01 02:10:28;;;;;;;;;;;;;;;;;;1039280;28;3895;-55
2023/03/01 02:10:59;;;;;;;;;;;;;;;;;;1040397;28;3784;-51
2023/03/01 02:11:30;;;;;;;;;;;;;;;;;;1040022;28;2742;-52
2023/03/01 02:12:01;;;;;;;;;;;;;;;;;;1042540;28;4149;-52
2023/03/01 02:12:32;;;;;;;;;;;;;;;;;;1043046;28;2875;-53
2023/03/01 02:13:02;;;;;;;;;;;;;;;;;;1042220;28;4104;-52
2023/03/01 02:13:33;;;;;;;;;;;;;;;;;;1041960;28;1585;-53
2023/03/01 02:14:04;;;;;;;;;;;;;;;;;;1043027;28;3965;-53
2023/03/01 02:14:34;;;;;;;;;;;;;;;;;;1047014;28;2743;-53
2023/03/01 02:15:05;;;;;;;;;;;;;;;;;;1046686;28;4060;-51
2023/03/01 02:15:37;;;;;;;;;;;;;;;;;;1045103;28;3019;-53
2023/03/01 02:16:11;;;;;;;;;;;;;;;;;;1049597;28;4211;-53
2023/03/01 02:16:42;;;;;;;;;;;;;;;;;;1046755;28;1824;-53
2023/03/01 02:17:14;;;;;;;;;;;;;;;;;;1045645;28;3899;-51
2023/03/01 02:17:44;;;;;;;;;;;;;;;;;;1042489;28;3071;-51
2023/03/01 02:18:18;;;;;;;;;;;;;;;;;;1045202;28;3810;-55
2023/03/01 02:18:49;;;;;;;;;;;;;;;;;;1041246;28;2708;-52
2023/03/01 02:19:38;;;;;;;;;;;;;;;;;;1042807;28;3923;-54
2023/03/01 02:20:27;;;;;;;;;;;;;;;;;;1039302;28;3899;-53
2023/03/01 02:21:00;;;;;;;;;;;;;;;;;;1039161;28;3444;-52
2023/03/01 02:21:37;;;;;;;;;;;;;;;;;;1046207;28;3710;-56
2023/03/01 02:22:27;;;;;;;;;;;;;;;;;;1045083;28;4107;-50
2023/03/01 02:22:58;;;;;;;;;;;;;;;;;;1047386;28;1672;-51
2023/03/01 02:23:29;;;;;;;;;;;;;;;;;;1040088;28;4529;-50
2023/03/01 02:24:01;;;;;;;;;;;;;;;;;;1041272;28;3909;-50
2023/03/01 02:24:43;;;;;;;;;;;;;;;;;;1039789;28;2676;-54
2023/03/01 02:25:19;;;;;;;;;;;;;;;;;;1040520;28;3861;-53
2023/03/01 02:25:57;;;;;;;;;;;;;;;;;;1040911;28;2831;-53
2023/03/01 02:26:40;;;;;;;;;;;;;;;;;;1044576;28;3972;-51
2023/03/01 02:27:10;;;;;;;;;;;;;;;;;;1045444;28;4098;-52
2023/03/01 02:27:47;;;;;;;;;;;;;;;;;;1043907;28;2224;-54
2023/03/01 02:28:17;;;;;;;;;;;;;;;;;;1042890;28;4034;-53
2023/03/01 02:28:47;;;;;;;;;;;;;;;;;;1040459;28;2850;-53
2023/03/01 02:29:18;;;;;;;;;;;;;;;;;;1039934;28;4003;-54
2023/03/01 02:29:48;;;;;;;;;;;;;;;;;;1040347;28;2893;-53
2023/03/01 02:30:20;;;;;;;;;;;;;;;;;;1041499;28;4049;-54
2023/03/01 02:31:43;;;;;;;;;;;;;;;;;;1041773;28;3902;-53
2023/03/01 02:32:13;;;;;;;;;;;;;;;;;;1039115;28;3969;-51
2023/03/01 02:32:44;;;;;;;;;;;;;;;;;;1045807;28;2953;-52
2023/03/01 02:33:14;;;;;;;;;;;;;;;;;;1046605;28;3788;-50
2023/03/01 02:33:45;;;;;;;;;;;;;;;;;;1045467;28;2733;-53
2023/03/01 02:34:16;;;;;;;;;;;;;;;;;;1045483;28;3980;-51
2023/03/01 02:34:47;;;;;;;;;;;;;;;;;;1047041;28;1684;-54
2023/03/01 02:35:17;;;;;;;;;;;;;;;;;;1046311;28;3942;-52
2023/03/01 02:35:47;;;;;;;;;;;;;;;;;;1045829;28;2808;-52
2023/03/01 02:36:23;;;;;;;;;;;;;;;;;;1044660;28;4115;-55
2023/03/01 02:36:54;;;;;;;;;;;;;;;;;;1045830;28;2689;-54
2023/03/01 02:37:26;;;;;;;;;;;;;;;;;;1045584;28;3982;-52
2023/03/01 02:37:56;;;;;;;;;;;;;;;;;;1044835;28;2961;-52
2023/03/01 02:38:27;;;;;;;;;;;;;;;;;;1045889;28;3993;-53
2023/03/01 02:38:58;;;;;;;;;;;;;;;;;;1045990;28;2551;-53
2023/03/01 02:39:31;;;;;;;;;;;;;;;;;;1045204;28;3918;-53
2023/03/01 02:40:03;;;;;;;;;;;;;;;;;;1044120;28;3786;-53
2023/03/01 02:40:35;;;;;;;;;;;;;;;;;;1045792;28;2890;-52
2023/03/01 02:41:06;;;;;;;;;;;;;;;;;;1046059;28;3919;-52
2023/03/01 02:41:39;;;;;;;;;;;;;;;;;;1045741;28;2527;-54
2023/03/01 02:42:11;;;;;;;;;;;;;;;;;;1044591;28;4183;-52
2023/03/01 02:42:46;;;;;;;;;;;;;;;;;;1045981;28;2792;-52
2023/03/01 02:43:19;;;;;;;;;;;;;;;;;;1045701;28;3957;-52
2023/03/01 02:43:49;;;;;;;;;;;;;;;;;;1043811;28;2781;-51
2023/03/01 02:44:20;;;;;;;;;;;;;;;;;;1047258;28;3998;-51
2023/03/01 02:44:51;;;;;;;;;;;;;;;;;;1047101;28;1742;-54
2023/03/01 02:45:21;;;;;;;;;;;;;;;;;;1043530;28;4030;-51
2023/03/01 02:45:52;;;;;;;;;;;;;;;;;;1044726;28;2709;-52
2023/03/01 02:46:24;;;;;;;;;;;;;;;;;;1043281;28;3829;-55
2023/03/01 02:46:56;;;;;;;;;;;;;;;;;;1046039;28;1888;-52
2023/03/01 02:47:26;;;;;;;;;;;;;;;;;;1044135;28;4015;-51
2023/03/01 02:47:57;;;;;;;;;;;;;;;;;;1046064;28;2912;-53
2023/03/01 02:48:27;;;;;;;;;;;;;;;;;;1044307;28;3991;-54
2023/03/01 02:48:58;;;;;;;;;;;;;;;;;;1047517;28;1762;-51
2023/03/01 02:49:30;;;;;;;;;;;;;;;;;;1044293;28;3848;-53
2023/03/01 02:50:00;;;;;;;;;;;;;;;;;;1045383;28;4070;-52
2023/03/01 02:50:30;;;;;;;;;;;;;;;;;;1044017;28;2353;-56
2023/03/01 02:51:05;;;;;;;;;;;;;;;;;;1047161;28;4042;-54
2023/03/01 02:51:45;;;;;;;;;;;;;;;;;;1046446;28;1710;-53
2023/03/01 02:52:26;;;;;;;;;;;;;;;;;;1042148;28;4004;-52
2023/03/01 02:52:59;;;;;;;;;;;;;;;;;;1041129;28;2861;-53
2023/03/01 02:53:48;;;;;;;;;;;;;;;;;;1042259;28;3912;-53
2023/03/01 02:54:25;;;;;;;;;;;;;;;;;;1040813;28;3904;-51
2023/03/01 02:55:03;;;;;;;;;;;;;;;;;;1041242;28;3127;-50
2023/03/01 02:55:33;;;;;;;;;;;;;;;;;;1040773;28;3926;-53
2023/03/01 02:56:03;;;;;;;;;;;;;;;;;;1040278;28;3945;-52
2023/03/01 02:56:34;;;;;;;;;;;;;;;;;;1042078;28;2958;-53
2023/03/01 02:57:05;;;;;;;;;;;;;;;;;;1042313;28;4148;-51
2023/03/01 02:57:36;;;;;;;;;;;;;;;;;;1046239;28;2776;-51
2023/03/01 02:58:07;;;;;;;;;;;;;;;;;;1043697;28;4082;-52
2023/03/01 02:58:44;;;;;;;;;;;;;;;;;;1046315;28;4062;-52
2023/03/01 02:59:20;;;;;;;;;;;;;;;;;;1045578;28;3927;-51
2023/03/01 02:59:51;;;;;;;;;;;;;;;;;;1042908;28;2382;-51
2023/03/01 03:00:24;;;;;;;;;;;;;;;;;;1044900;28;3818;-53
2023/03/01 03:00:55;;;;;;;;;;;;;;;;;;1042458;28;3021;-52
2023/03/01 03:01:36;;;;;;;;;;;;;;;;;;1046564;28;4005;-53
2023/03/01 03:02:07;;;;;;;;;;;;;;;;;;1044209;28;4072;-53
2023/03/01 03:02:37;;;;;;;;;;;;;;;;;;1041819;28;2212;-53
2023/03/01 03:03:08;;;;;;;;;;;;;;;;;;1038239;28;3901;-55
2023/03/01 03:03:38;;;;;;;;;;;;;;;;;;1041698;28;1602;-50
2023/03/01 03:04:10;;;;;;;;;;;;;;;;;;1039207;28;4065;-52
2023/03/01 03:04:40;;;;;;;;;;;;;;;;;;1046480;28;1806;-55
2023/03/01 03:05:13;;;;;;;;;;;;;;;;;;1044855;28;4377;-52
2023/03/01 03:05:43;;;;;;;;;;;;;;;;;;1048453;28;2681;-54
2023/03/01 03:06:13;;;;;;;;;;;;;;;;;;1048173;28;3874;-51
2023/03/01 03:06:44;;;;;;;;;;;;;;;;;;1051009;28;1871;-52
2023/03/01 03:07:14;;;;;;;;;;;;;;;;;;1047999;28;4030;-53
2023/03/01 03:07:46;;;;;;;;;;;;;;;;;;1044104;28;2836;-53
2023/03/01 03:08:23;;;;;;;;;;;;;;;;;;1045206;28;4061;-53
2023/03/01 03:08:54;;;;;;;;;;;;;;;;;;1046869;28;2427;-54
2023/03/01 03:09:24;;;;;;;;;;;;;;;;;;1044433;28;4042;-50
2023/03/01 03:09:54;;;;;;;;;;;;;;;;;;1046779;28;3074;-50
2023/03/01 03:10:29;;;;;;;;;;;;;;;;;;1045262;28;3870;-52
2023/03/01 03:10:59;;;;;;;;;;;;;;;;;;1044360;28;4089;-53
2023/03/01 03:11:30;;;;;;;;;;;;;;;;;;1045703;28;1961;-54
2023/03/01 03:12:00;;;;;;;;;;;;;;;;;;1044883;28;4175;-53
2023/03/01 03:12:30;;;;;;;;;;;;;;;;;;1045816;28;2993;-55
2023/03/01 03:13:05;;;;;;;;;;;;;;;;;;1043794;28;4406;-52
2023/03/01 03:13:36;;;;;;;;;;;;;;;;;;1044994;28;2302;-53
2023/03/01 03:14:12;;;;;;;;;;;;;;;;;;1045544;28;3896;-50
2023/03/01 03:14:42;;;;;;;;;;;;;;;;;;1044098;28;2894;-53
2023/03/01 03:15:12;;;;;;;;;;;;;;;;;;1044463;28;4081;-53
2023/03/01 03:15:43;;;;;;;;;;;;;;;;;;1044992;28;2439;-52
2023/03/01 03:16:13;;;;;;;;;;;;;;;;;;1043669;28;3784;-52
2023/03/01 03:16:45;;;;;;;;;;;;;;;;;;1043202;28;2998;-51
2023/03/01 03:17:16;;;;;;;;;;;;;;;;;;1046868;28;3965;-53
2023/03/01 03:17:46;;;;;;;;;;;;;;;;;;1045378;28;2376;-53
2023/03/01 03:18:16;;;;;;;;;;;;;;;;;;1045252;28;3891;-55
2023/03/01 03:18:47;;;;;;;;;;;;;;;;;;1044321;28;2799;-51
2023/03/01 03:19:18;;;;;;;;;;;;;;;;;;1049112;28;4268;-54
2023/03/01 03:19:49;;;;;;;;;;;;;;;;;;1049477;28;2191;-54
2023/03/01 03:20:21;;;;;;;;;;;;;;;;;;1047471;28;3853;-51
2023/03/01 03:20:52;;;;;;;;;;;;;;;;;;1046194;28;2947;-52
2023/03/01 03:21:23;;;;;;;;;;;;;;;;;;1045593;28;4011;-54
2023/03/01 03:21:53;;;;;;;;;;;;;;;;;;1045480;28;2510;-52
2023/03/01 03:22:23;;;;;;;;;;;;;;;;;;1044284;28;3998;-52
2023/03/01 03:22:54;;;;;;;;;;;;;;;;;;1044258;28;2245;-55
2023/03/01 03:23:25;;;;;;;;;;;;;;;;;;1044818;28;4021;-53
2023/03/01 03:23:55;;;;;;;;;;;;;;;;;;1043870;28;2783;-52
2023/03/01 03:24:25;;;;;;;;;;;;;;;;;;1044675;28;4019;-55
2023/03/01 03:24:56;;;;;;;;;;;;;;;;;;1046312;28;2023;-54
2023/03/01 03:25:27;;;;;;;;;;;;;;;;;;1043054;28;3714;-51
2023/03/01 03:25:57;;;;;;;;;;;;;;;;;;1044978;28;2186;-53
2023/03/01 03:26:28;;;;;;;;;;;;;;;;;;1043349;28;4013;-51
2023/03/01 03:26:58;;;;;;;;;;;;;;;;;;1045999;28;2185;-50
2023/03/01 03:27:28;;;;;;;;;;;;;;;;;;1043178;28;3953;-53
2023/03/01 03:27:58;;;;;;;;;;;;;;;;;;1044680;28;2656;-51
2023/03/01 03:28:30;;;;;;;;;;;;;;;;;;1043559;28;3884;-53
2023/03/01 03:29:00;;;;;;;;;;;;;;;;;;1044612;28;4082;-53
2023/03/01 03:29:31;;;;;;;;;;;;;;;;;;1045483;28;2315;-50
2023/03/01 03:30:01;;;;;;;;;;;;;;;;;;1043410;28;3910;-53
2023/03/01 03:30:31;;;;;;;;;;;;;;;;;;1044428;28;2821;-53
2023/03/01 03:31:03;;;;;;;;;;;;;;;;;;1042743;28;5366;-51
2023/03/01 03:31:33;;;;;;;;;;;;;;;;;;1045979;28;2206;-53
2023/03/01 03:32:04;;;;;;;;;;;;;;;;;;1044639;28;3784;-53
2023/03/01 03:32:40;;;;;;;;;;;;;;;;;;1045571;28;2125;-52
2023/03/01 03:33:11;;;;;;;;;;;;;;;;;;1044910;28;3860;-54
2023/03/01 03:33:42;;;;;;;;;;;;;;;;;;1045684;28;2014;-52
2023/03/01 03:34:17;;;;;;;;;;;;;;;;;;1044744;28;4228;-50
2023/03/01 03:34:49;;;;;;;;;;;;;;;;;;1045730;28;1787;-51
2023/03/01 03:35:19;;;;;;;;;;;;;;;;;;1046226;28;4042;-52
2023/03/01 03:35:49;;;;;;;;;;;;;;;;;;1043916;28;3347;-53
2023/03/01 03:36:21;;;;;;;;;;;;;;;;;;1043449;28;4463;-51
2023/03/01 03:36:59;;;;;;;;;;;;;;;;;;1045707;28;2675;-52
2023/03/01 03:38:21;;;;;;;;;;;;;;;;;;1044687;28;3832;-53
2023/03/01 03:38:51;;;;;;;;;;;;;;;;;;1045451;28;2211;-54
2023/03/01 03:39:23;;;;;;;;;;;;;;;;;;1043342;28;3738;-52
2023/03/01 03:39:54;;;;;;;;;;;;;;;;;;1045413;28;2789;-52
2023/03/01 03:40:25;;;;;;;;;;;;;;;;;;1044727;28;3922;-54
2023/03/01 03:41:03;;;;;;;;;;;;;;;;;;1044626;28;2770;-53
2023/03/01 03:41:34;;;;;;;;;;;;;;;;;;1044470;28;3925;-53
2023/03/01 03:42:04;;;;;;;;;;;;;;;;;;1044998;28;4090;-53
2023/03/01 03:42:34;;;;;;;;;;;;;;;;;;1043888;28;2741;-53